Time;durP1;ratioP1;P1;durP2;ratioP2;P2;SDS_P1;SDS_P2;PMS_P1;PMS_P2;Temp;Humidity;BMP_temperature;BMP_pressure;BME280_temperature;BME280_humidity;BME280_pressure;Samples;Min_cycle;Max_cycle;Signal;HPM_P1;HPM_P2
2021/08/25 00:00:20;;;;;;;10.55;9.50;;;14.40;92.10;;;;;;5057066;28;20225;-77
2021/08/25 00:02:47;;;;;;;11.50;9.85;;;14.40;92.10;;;;;;5049790;28;20285;-79
2021/08/25 00:05:14;;;;;;;12.38;11.13;;;14.30;92.00;;;;;;5038784;28;20242;-75
2021/08/25 00:07:41;;;;;;;11.50;10.32;;;14.30;91.90;;;;;;5038192;28;20241;-77
2021/08/25 00:10:08;;;;;;;12.27;10.98;;;14.30;92.10;;;;;;5040695;28;20237;-79
2021/08/25 00:12:35;;;;;;;11.93;10.77;;;14.30;92.30;;;;;;5041480;28;20258;-78
2021/08/25 00:15:02;;;;;;;12.18;10.95;;;14.20;92.50;;;;;;5037139;28;20222;-76
2021/08/25 00:17:31;;;;;;;12.52;11.23;;;14.20;92.50;;;;;;5036680;28;20246;-76
2021/08/25 00:19:57;;;;;;;12.13;10.82;;;14.20;93.00;;;;;;5036486;28;20241;-76
2021/08/25 00:22:24;;;;;;;14.57;10.13;;;14.20;93.00;;;;;;5036556;28;20230;-77
2021/08/25 00:24:51;;;;;;;12.52;10.90;;;14.20;93.00;;;;;;5036111;28;20241;-76
2021/08/25 00:27:18;;;;;;;11.70;10.50;;;14.10;93.00;;;;;;5036185;28;20210;-76
2021/08/25 00:29:45;;;;;;;11.73;10.57;;;14.10;93.00;;;;;;5036539;28;20293;-76
2021/08/25 00:32:12;;;;;;;13.05;10.73;;;14.10;93.00;;;;;;5036307;28;20223;-76
2021/08/25 00:34:40;;;;;;;13.60;12.07;;;14.00;92.90;;;;;;5036191;28;20243;-79
2021/08/25 00:37:07;;;;;;;13.35;11.10;;;14.00;93.30;;;;;;5035292;28;20300;-78
2021/08/25 00:39:34;;;;;;;12.43;11.20;;;14.00;92.90;;;;;;5035285;28;20298;-77
2021/08/25 00:42:01;;;;;;;14.20;11.50;;;14.00;92.90;;;;;;5034892;28;20321;-77
2021/08/25 00:44:29;;;;;;;13.70;10.50;;;14.00;92.90;;;;;;5035181;28;20648;-77
2021/08/25 00:46:56;;;;;;;14.10;12.65;;;14.00;92.90;;;;;;5035776;28;20301;-76
2021/08/25 00:49:22;;;;;;;11.75;10.57;;;14.10;92.70;;;;;;5035614;28;20241;-76
2021/08/25 00:51:51;;;;;;;16.67;11.70;;;14.00;92.70;;;;;;5035281;28;20206;-76
2021/08/25 00:54:19;;;;;;;12.05;10.85;;;14.10;92.60;;;;;;5034550;28;20779;-76
2021/08/25 00:56:49;;;;;;;12.73;11.20;;;14.00;92.90;;;;;;5034401;28;20217;-75
2021/08/25 00:59:17;;;;;;;12.02;10.70;;;14.00;92.90;;;;;;5034351;28;20242;-76
2021/08/25 01:01:53;;;;;;;13.73;10.90;;;13.90;92.90;;;;;;5034153;28;20240;-76
2021/08/25 01:04:25;;;;;;;13.35;11.50;;;13.90;93.10;;;;;;5034339;28;20257;-76
2021/08/25 01:06:55;;;;;;;13.25;10.88;;;13.90;93.30;;;;;;5034696;28;20725;-76
2021/08/25 01:09:22;;;;;;;14.85;11.55;;;13.80;93.40;;;;;;5034111;28;20214;-76
2021/08/25 01:11:49;;;;;;;12.95;11.65;;;13.80;93.60;;;;;;5037039;28;20206;-79
2021/08/25 01:14:17;;;;;;;12.35;11.07;;;13.80;93.50;;;;;;5035333;28;20250;-78
2021/08/25 01:16:46;;;;;;;13.88;11.50;;;13.80;93.60;;;;;;5034504;28;20217;-77
2021/08/25 01:19:15;;;;;;;12.60;11.38;;;13.80;93.80;;;;;;5037248;28;20214;-77
2021/08/25 01:21:44;;;;;;;13.52;11.30;;;13.80;93.80;;;;;;5034219;28;20226;-77
2021/08/25 01:24:14;;;;;;;12.80;11.52;;;13.70;94.00;;;;;;5034458;28;20356;-76
2021/08/25 01:26:42;;;;;;;13.50;11.82;;;13.70;94.20;;;;;;5038058;28;20685;-77
2021/08/25 01:29:25;;;;;;;12.57;10.82;;;13.70;94.60;;;;;;5034009;28;20301;-76
2021/08/25 01:31:52;;;;;;;14.68;10.63;;;13.70;94.80;;;;;;5033596;28;20197;-77
2021/08/25 01:34:19;;;;;;;14.40;12.15;;;13.60;94.70;;;;;;5034264;28;20317;-78
2021/08/25 01:36:51;;;;;;;12.43;11.13;;;13.60;95.10;;;;;;5034024;28;20253;-77
2021/08/25 01:39:18;;;;;;;13.82;11.00;;;13.60;95.20;;;;;;5033774;28;20229;-78
2021/08/25 01:41:45;;;;;;;15.00;11.88;;;13.50;95.40;;;;;;5033412;28;20321;-77
2021/08/25 01:44:12;;;;;;;12.95;11.65;;;13.50;95.70;;;;;;5034053;28;20759;-77
2021/08/25 01:46:42;;;;;;;13.20;11.73;;;13.50;96.10;;;;;;5033783;28;20214;-77
2021/08/25 01:49:16;;;;;;;13.25;11.70;;;13.50;95.90;;;;;;5033444;28;20209;-78
2021/08/25 01:51:43;;;;;;;13.52;11.32;;;13.50;96.00;;;;;;5033552;28;20277;-77
2021/08/25 01:54:12;;;;;;;12.75;11.55;;;13.50;96.10;;;;;;5033594;28;20331;-77
2021/08/25 01:56:40;;;;;;;14.02;12.60;;;13.50;96.30;;;;;;5033971;28;20216;-77
2021/08/25 01:59:08;;;;;;;14.93;12.85;;;13.50;96.20;;;;;;5032744;28;20214;-77
2021/08/25 02:01:35;;;;;;;12.38;11.07;;;13.40;96.20;;;;;;5033299;28;20245;-78
2021/08/25 02:04:04;;;;;;;13.27;12.00;;;13.40;96.30;;;;;;5033257;28;20638;-77
2021/08/25 02:06:31;;;;;;;13.45;12.05;;;13.40;96.30;;;;;;5033348;28;20210;-77
2021/08/25 02:08:58;;;;;;;14.27;12.38;;;13.40;96.30;;;;;;5033001;28;20237;-77
2021/08/25 02:11:25;;;;;;;12.40;11.10;;;13.40;96.30;;;;;;5032996;28;20206;-77
2021/08/25 02:13:52;;;;;;;13.48;12.05;;;13.40;96.30;;;;;;5032948;28;20299;-78
2021/08/25 02:16:19;;;;;;;11.82;10.63;;;13.40;96.30;;;;;;5032971;28;20613;-77
2021/08/25 02:18:46;;;;;;;12.65;11.40;;;13.30;96.40;;;;;;5033524;28;20214;-78
2021/08/25 02:21:15;;;;;;;13.82;12.43;;;13.30;96.80;;;;;;5042378;28;20262;-78
2021/08/25 02:23:42;;;;;;;12.90;11.60;;;13.30;96.90;;;;;;5032855;28;20237;-78
2021/08/25 02:26:16;;;;;;;12.75;11.45;;;13.30;97.10;;;;;;5033913;28;20217;-78
2021/08/25 02:28:43;;;;;;;13.57;12.25;;;13.20;97.20;;;;;;5033069;28;20447;-78
2021/08/25 02:31:10;;;;;;;14.15;12.65;;;13.30;97.60;;;;;;5034127;28;20291;-78
2021/08/25 02:33:37;;;;;;;13.55;11.70;;;13.20;97.60;;;;;;5046096;28;20235;-77
2021/08/25 02:36:04;;;;;;;13.55;12.13;;;13.20;97.80;;;;;;5053581;28;20293;-81
2021/08/25 02:38:33;;;;;;;15.32;12.10;;;13.20;97.80;;;;;;5054569;28;20241;-79
2021/08/25 02:40:59;;;;;;;15.57;12.55;;;13.20;98.00;;;;;;5038642;28;20245;-81
2021/08/25 02:43:26;;;;;;;14.98;13.48;;;13.10;98.00;;;;;;5057224;28;20213;-80
2021/08/25 02:45:53;;;;;;;13.50;12.10;;;13.20;98.00;;;;;;5056784;28;20245;-80
2021/08/25 02:48:20;;;;;;;13.77;12.32;;;13.20;98.00;;;;;;5036982;28;20220;-78
2021/08/25 02:50:47;;;;;;;12.98;11.55;;;13.10;98.00;;;;;;5033366;28;20243;-78
2021/08/25 02:53:16;;;;;;;14.50;12.43;;;13.10;98.00;;;;;;5033668;28;20645;-78
2021/08/25 02:55:44;;;;;;;12.75;11.45;;;13.10;98.30;;;;;;5033570;28;20213;-76
2021/08/25 02:58:11;;;;;;;14.02;12.25;;;13.10;98.20;;;;;;5032984;28;20209;-77
2021/08/25 03:00:38;;;;;;;14.82;13.38;;;13.10;98.40;;;;;;5033218;28;20299;-77
2021/08/25 03:03:05;;;;;;;15.48;13.60;;;13.10;98.50;;;;;;5033216;28;20786;-79
2021/08/25 03:05:32;;;;;;;14.45;12.20;;;13.10;98.40;;;;;;5033269;28;20238;-77
2021/08/25 03:07:59;;;;;;;18.05;13.23;;;13.10;98.50;;;;;;5033416;28;20240;-77
2021/08/25 03:10:26;;;;;;;13.25;11.85;;;13.10;98.50;;;;;;5034497;28;20241;-78
2021/08/25 03:12:54;;;;;;;14.40;12.90;;;13.00;98.40;;;;;;5033294;28;20763;-77
2021/08/25 03:15:21;;;;;;;13.43;11.85;;;13.00;98.50;;;;;;5035881;28;20221;-77
2021/08/25 03:17:48;;;;;;;13.93;12.10;;;13.00;98.70;;;;;;5037345;28;20208;-77
2021/08/25 03:20:15;;;;;;;16.55;12.20;;;13.00;98.70;;;;;;5037139;28;20252;-77
2021/08/25 03:22:42;;;;;;;13.43;12.07;;;12.90;99.00;;;;;;5036348;28;20242;-77
2021/08/25 03:25:10;;;;;;;13.68;12.27;;;12.90;99.20;;;;;;5034181;28;20237;-77
2021/08/25 03:27:38;;;;;;;13.40;12.00;;;12.90;99.10;;;;;;5034113;28;20308;-77
2021/08/25 03:30:07;;;;;;;15.40;12.63;;;12.90;99.00;;;;;;5034153;28;20242;-77
2021/08/25 03:32:35;;;;;;;12.93;11.60;;;12.90;99.10;;;;;;5036547;28;20692;-77
2021/08/25 03:35:02;;;;;;;15.15;12.82;;;12.90;99.00;;;;;;5037211;28;20271;-79
2021/08/25 03:37:28;;;;;;;13.70;12.30;;;12.90;99.20;;;;;;5036591;28;20217;-77
2021/08/25 03:39:55;;;;;;;14.05;12.65;;;12.90;99.20;;;;;;5037123;28;20218;-76
2021/08/25 03:42:22;;;;;;;14.05;12.52;;;12.90;99.30;;;;;;5038866;28;20239;-77
2021/08/25 03:44:49;;;;;;;14.68;13.10;;;12.90;99.40;;;;;;5039885;28;20296;-76
2021/08/25 03:47:17;;;;;;;15.65;14.02;;;12.90;99.40;;;;;;5040811;28;20214;-76
2021/08/25 03:49:44;;;;;;;13.70;12.40;;;12.90;99.60;;;;;;5041685;28;20270;-76
2021/08/25 03:52:11;;;;;;;15.10;13.50;;;12.90;99.60;;;;;;5038818;28;20573;-78
2021/08/25 03:54:38;;;;;;;14.38;12.98;;;12.80;99.60;;;;;;5046817;28;20224;-80
2021/08/25 03:57:05;;;;;;;14.07;12.73;;;12.80;99.60;;;;;;5059786;28;20189;-78
2021/08/25 03:59:32;;;;;;;16.00;12.73;;;12.80;99.60;;;;;;5059850;28;20191;-79
2021/08/25 04:01:59;;;;;;;13.48;12.10;;;12.80;99.60;;;;;;5050739;28;20746;-76
2021/08/25 04:04:27;;;;;;;13.88;12.38;;;12.80;99.60;;;;;;5035010;28;20320;-77
2021/08/25 04:06:54;;;;;;;15.40;13.80;;;12.80;99.60;;;;;;5035278;28;20261;-77
2021/08/25 04:09:21;;;;;;;13.43;12.07;;;12.90;99.50;;;;;;5034621;28;20212;-76
2021/08/25 04:11:47;;;;;;;15.52;13.95;;;12.90;99.20;;;;;;5034892;28;20210;-77
2021/08/25 04:14:14;;;;;;;14.07;12.13;;;12.90;99.20;;;;;;5035326;28;20320;-78
2021/08/25 04:16:41;;;;;;;14.38;12.88;;;12.90;99.00;;;;;;5034990;28;20229;-78
2021/08/25 04:19:08;;;;;;;14.65;12.50;;;12.90;98.90;;;;;;5034373;28;20617;-78
2021/08/25 04:21:36;;;;;;;14.48;13.00;;;12.80;98.90;;;;;;5034564;28;20644;-77
2021/08/25 04:24:03;;;;;;;14.88;12.38;;;12.80;99.00;;;;;;5034878;28;20228;-77
2021/08/25 04:26:30;;;;;;;15.68;12.30;;;12.80;99.00;;;;;;5035192;28;20212;-77
2021/08/25 04:28:57;;;;;;;13.80;12.50;;;12.80;99.10;;;;;;5036069;28;20292;-78
2021/08/25 04:31:24;;;;;;;13.77;12.38;;;12.80;99.10;;;;;;5045437;28;20236;-76
2021/08/25 04:33:51;;;;;;;14.13;12.75;;;12.80;99.40;;;;;;5034718;28;20267;-77
2021/08/25 04:36:17;;;;;;;16.80;13.65;;;12.70;99.50;;;;;;5034438;28;20301;-78
2021/08/25 04:38:46;;;;;;;14.10;12.57;;;12.80;99.50;;;;;;5034075;28;20580;-78
2021/08/25 04:41:13;;;;;;;14.65;13.10;;;12.80;99.20;;;;;;5034312;28;20299;-78
2021/08/25 04:43:39;;;;;;;15.23;13.73;;;12.80;99.00;;;;;;5034416;28;20234;-78
2021/08/25 04:46:06;;;;;;;13.45;12.02;;;12.80;99.10;;;;;;5034299;28;20232;-77
2021/08/25 04:48:34;;;;;;;14.75;13.15;;;12.80;99.30;;;;;;5034280;28;20258;-78
2021/08/25 04:51:01;;;;;;;20.02;14.18;;;12.80;99.30;;;;;;5034282;28;20244;-77
2021/08/25 04:53:28;;;;;;;13.25;11.82;;;12.70;99.40;;;;;;5034685;28;20222;-77
2021/08/25 04:55:56;;;;;;;15.48;12.20;;;12.80;99.30;;;;;;5041001;28;20215;-77
2021/08/25 04:58:23;;;;;;;17.30;12.90;;;12.80;99.20;;;;;;5052195;28;20638;-77
2021/08/25 05:00:51;;;;;;;17.00;11.88;;;12.80;98.70;;;;;;5055063;28;20236;-78
2021/08/25 05:03:18;;;;;;;14.38;12.95;;;12.90;98.70;;;;;;5056750;28;20260;-76
2021/08/25 05:05:45;;;;;;;16.92;12.93;;;13.00;97.40;;;;;;5054297;28;20211;-77
2021/08/25 05:08:12;;;;;;;14.02;12.35;;;13.20;96.20;;;;;;5055199;28;20213;-78
2021/08/25 05:10:39;;;;;;;12.23;10.10;;;13.40;94.70;;;;;;5053344;28;20206;-79
2021/08/25 05:13:07;;;;;;;11.77;10.65;;;13.50;93.50;;;;;;5047334;28;20260;-80
2021/08/25 05:15:34;;;;;;;10.93;9.73;;;13.60;92.30;;;;;;5039367;28;20238;-80
2021/08/25 05:18:02;;;;;;;12.82;11.43;;;13.70;91.50;;;;;;5038421;28;20300;-79
2021/08/25 05:20:29;;;;;;;13.05;11.63;;;13.80;90.60;;;;;;5039060;28;20285;-79
2021/08/25 05:22:57;;;;;;;12.23;10.93;;;13.90;90.10;;;;;;5041018;28;20230;-79
2021/08/25 05:25:24;;;;;;;12.07;10.48;;;13.90;88.20;;;;;;5038642;28;20240;-80
2021/08/25 05:27:51;;;;;;;11.73;10.57;;;14.00;88.30;;;;;;5039693;28;20230;-79
2021/08/25 05:30:19;;;;;;;13.20;10.95;;;14.20;86.00;;;;;;5043056;28;20204;-78
2021/08/25 05:32:51;;;;;;;12.70;11.40;;;14.10;86.00;;;;;;5043177;28;20271;-79
2021/08/25 05:35:18;;;;;;;10.60;9.70;;;14.10;86.00;;;;;;5040485;28;20682;-78
2021/08/25 05:37:45;;;;;;;12.07;10.10;;;14.30;84.80;;;;;;5040913;28;20206;-79
2021/08/25 05:40:13;;;;;;;10.38;8.60;;;14.40;82.00;;;;;;5046022;28;20214;-79
2021/08/25 05:42:41;;;;;;;11.23;10.05;;;14.50;82.00;;;;;;5049403;28;20284;-78
2021/08/25 05:45:09;;;;;;;9.88;8.88;;;14.70;80.50;;;;;;5049968;28;20198;-78
2021/08/25 05:47:38;;;;;;;11.75;9.60;;;14.70;80.60;;;;;;5055155;28;20205;-78
2021/08/25 05:50:06;;;;;;;10.40;9.40;;;14.80;79.20;;;;;;5054453;28;20207;-78
2021/08/25 05:52:33;;;;;;;10.95;9.85;;;14.80;80.60;;;;;;5056662;28;20222;-77
2021/08/25 05:55:00;;;;;;;9.77;8.88;;;14.90;78.50;;;;;;5055907;28;20210;-77
2021/08/25 05:57:27;;;;;;;9.75;8.75;;;15.00;77.00;;;;;;5055570;28;20203;-76
2021/08/25 05:59:55;;;;;;;10.02;9.20;;;15.00;77.10;;;;;;5045139;28;20226;-79
2021/08/25 06:02:22;;;;;;;10.80;9.70;;;15.30;74.70;;;;;;5038673;28;20219;-78
2021/08/25 06:04:51;;;;;;;9.98;8.98;;;15.40;72.80;;;;;;5040808;28;20215;-82
2021/08/25 06:07:18;;;;;;;8.90;8.10;;;15.60;72.80;;;;;;5043407;28;20203;-82
2021/08/25 06:09:51;;;;;;;9.52;8.73;;;15.80;72.00;;;;;;5043336;28;20237;-81
2021/08/25 06:12:18;;;;;;;11.00;9.90;;;15.50;72.60;;;;;;5044468;28;20238;-80
2021/08/25 06:14:45;;;;;;;9.00;8.27;;;15.40;73.80;;;;;;5049666;28;20187;-80
2021/08/25 06:17:12;;;;;;;9.63;8.57;;;15.50;72.60;;;;;;5052963;28;20263;-80
2021/08/25 06:19:39;;;;;;;12.35;9.32;;;15.50;72.60;;;;;;5053127;28;20450;-81
2021/08/25 06:22:07;;;;;;;11.25;10.13;;;15.20;73.70;;;;;;5052924;28;20259;-80
2021/08/25 06:24:34;;;;;;;9.90;8.95;;;15.00;76.20;;;;;;5028136;28;20746;-80
2021/08/25 06:27:01;;;;;;;11.20;10.07;;;15.00;77.40;;;;;;5025366;28;20200;-80
2021/08/25 06:29:28;;;;;;;10.95;9.85;;;15.00;77.20;;;;;;5044553;28;20230;-81
2021/08/25 06:31:55;;;;;;;11.82;10.73;;;14.70;78.30;;;;;;5049177;28;20198;-81
2021/08/25 06:34:21;;;;;;;10.85;9.85;;;14.70;80.50;;;;;;5053714;28;20220;-81
2021/08/25 06:36:48;;;;;;;13.32;9.73;;;14.70;80.40;;;;;;5052892;28;20210;-81
2021/08/25 06:39:17;;;;;;;11.25;10.15;;;14.80;80.10;;;;;;5050377;28;20211;-81
2021/08/25 06:41:44;;;;;;;11.27;9.90;;;14.80;79.40;;;;;;5055181;28;20282;-81
2021/08/25 06:44:10;;;;;;;11.23;10.13;;;14.80;80.60;;;;;;5053934;28;20244;-81
2021/08/25 06:46:37;;;;;;;10.70;9.70;;;14.80;80.60;;;;;;5053768;28;20222;-81
2021/08/25 06:49:04;;;;;;;10.85;9.85;;;14.80;80.10;;;;;;5050699;28;20214;-81
2021/08/25 06:51:32;;;;;;;11.23;9.40;;;14.90;80.70;;;;;;5043573;28;20691;-81
2021/08/25 06:54:00;;;;;;;12.38;9.88;;;14.90;80.70;;;;;;5045027;28;20218;-79
2021/08/25 06:56:28;;;;;;;11.25;10.15;;;14.90;78.90;;;;;;5044775;28;20578;-81
2021/08/25 06:58:55;;;;;;;11.38;9.95;;;15.00;79.70;;;;;;5045140;28;20210;-80
2021/08/25 07:01:22;;;;;;;10.80;9.73;;;15.10;78.40;;;;;;5043322;28;20215;-81
2021/08/25 07:03:49;;;;;;;10.75;9.75;;;15.30;77.00;;;;;;5042992;28;20257;-81
2021/08/25 07:06:16;;;;;;;10.85;9.75;;;15.20;75.80;;;;;;5047824;28;20207;-80
2021/08/25 07:08:43;;;;;;;9.88;8.98;;;15.00;77.60;;;;;;5049931;28;20234;-79
2021/08/25 07:11:10;;;;;;;12.80;9.88;;;15.10;77.20;;;;;;5050980;28;20225;-83
2021/08/25 07:13:39;;;;;;;12.45;9.77;;;15.30;76.80;;;;;;5052324;28;20310;-81
2021/08/25 07:16:07;;;;;;;10.20;9.20;;;15.40;74.90;;;;;;5051395;28;20276;-82
2021/08/25 07:18:34;;;;;;;9.85;9.05;;;15.50;74.60;;;;;;5052262;28;20207;-83
2021/08/25 07:21:03;;;;;;;10.32;9.02;;;15.60;73.80;;;;;;5057308;28;20393;-82
2021/08/25 07:23:30;;;;;;;11.15;9.95;;;15.60;72.70;;;;;;5052620;28;20631;-81
2021/08/25 07:25:57;;;;;;;10.27;9.27;;;15.50;72.60;;;;;;5049591;28;20825;-80
2021/08/25 07:28:24;;;;;;;10.02;9.15;;;15.60;72.70;;;;;;5049191;28;20215;-81
2021/08/25 07:30:53;;;;;;;9.63;8.70;;;15.60;72.70;;;;;;5049136;28;20211;-80
2021/08/25 07:33:22;;;;;;;10.88;9.20;;;15.80;72.90;;;;;;5048054;28;20462;-79
2021/08/25 07:35:49;;;;;;;9.15;8.35;;;15.90;70.90;;;;;;5050429;28;20207;-81
2021/08/25 07:38:16;;;;;;;9.73;8.82;;;15.90;71.30;;;;;;5048295;28;20227;-80
2021/08/25 07:40:43;;;;;;;10.88;8.40;;;15.90;70.90;;;;;;5049283;28;20274;-80
2021/08/25 07:43:11;;;;;;;12.53;8.87;;;16.00;71.20;;;;;;5047619;28;20224;-79
2021/08/25 07:45:37;;;;;;;10.18;9.23;;;16.20;70.10;;;;;;5049039;28;20492;-80
2021/08/25 07:48:06;;;;;;;9.07;8.17;;;16.30;69.50;;;;;;5048601;28;20598;-80
2021/08/25 07:50:34;;;;;;;10.67;9.10;;;16.40;69.10;;;;;;5049164;28;20489;-81
2021/08/25 07:53:00;;;;;;;8.93;8.10;;;16.60;68.30;;;;;;5050450;28;20470;-80
2021/08/25 07:55:28;;;;;;;9.17;8.13;;;16.60;66.90;;;;;;5053959;28;20459;-80
2021/08/25 07:57:54;;;;;;;10.30;8.90;;;16.70;67.50;;;;;;5055779;28;20455;-79
2021/08/25 08:00:21;;;;;;;9.97;8.57;;;16.70;67.40;;;;;;5059082;28;20475;-80
2021/08/25 08:02:48;;;;;;;9.40;8.50;;;16.80;65.80;;;;;;5058039;28;20478;-81
2021/08/25 08:05:17;;;;;;;10.47;8.33;;;16.80;66.30;;;;;;5049008;28;20864;-79
2021/08/25 08:07:44;;;;;;;8.60;7.70;;;16.80;65.50;;;;;;5048809;28;20490;-81
2021/08/25 08:10:12;;;;;;;9.00;8.10;;;16.80;66.00;;;;;;5046465;28;20452;-80
2021/08/25 08:12:39;;;;;;;9.07;8.17;;;17.00;66.30;;;;;;5049267;28;20472;-81
2021/08/25 08:15:11;;;;;;;9.17;8.37;;;17.20;63.80;;;;;;5050500;28;20455;-81
2021/08/25 08:17:38;;;;;;;8.67;7.87;;;17.10;65.10;;;;;;5049354;28;20781;-80
2021/08/25 08:20:06;;;;;;;8.90;8.10;;;17.20;64.60;;;;;;5049266;28;20458;-81
2021/08/25 08:22:35;;;;;;;8.90;8.00;;;17.30;64.00;;;;;;5049609;28;20464;-81
2021/08/25 08:25:02;;;;;;;8.83;8.00;;;17.50;61.70;;;;;;5046757;28;20467;-81
2021/08/25 08:27:29;;;;;;;10.27;7.83;;;17.40;61.90;;;;;;5046995;28;20454;-80
2021/08/25 08:29:56;;;;;;;10.27;7.27;;;17.40;62.60;;;;;;5049923;28;20541;-81
2021/08/25 08:32:23;;;;;;;9.63;8.20;;;17.50;62.80;;;;;;5047772;28;20444;-81
2021/08/25 08:34:50;;;;;;;8.40;7.70;;;17.40;62.00;;;;;;5046586;28;20474;-81
2021/08/25 08:37:17;;;;;;;8.20;7.40;;;17.70;61.50;;;;;;5045220;28;20499;-80
2021/08/25 08:39:45;;;;;;;7.90;7.20;;;17.70;61.30;;;;;;5048302;28;20476;-81
2021/08/25 08:42:38;;;;;;;8.10;7.40;;;17.80;60.20;;;;;;5048853;28;20463;-81
2021/08/25 08:45:07;;;;;;;8.80;7.53;;;18.00;59.90;;;;;;5050960;28;20444;-81
2021/08/25 08:47:35;;;;;;;8.43;7.63;;;18.00;59.40;;;;;;5052734;28;20462;-80
2021/08/25 08:50:02;;;;;;;8.77;8.07;;;18.20;59.10;;;;;;5052641;28;20444;-81
2021/08/25 08:52:30;;;;;;;7.93;7.23;;;18.10;57.30;;;;;;5049015;28;20468;-81
2021/08/25 08:54:58;;;;;;;8.17;7.37;;;18.20;58.50;;;;;;5045488;28;20451;-80
2021/08/25 08:57:25;;;;;;;8.30;7.50;;;18.40;57.80;;;;;;5047386;28;20448;-81
2021/08/25 08:59:52;;;;;;;9.17;7.10;;;18.30;58.20;;;;;;5053340;28;20454;-79
2021/08/25 09:02:37;;;;;;;7.67;6.93;;;18.40;57.10;;;;;;5056711;28;20448;-80
2021/08/25 09:05:19;;;;;;;7.43;6.53;;;18.30;57.00;;;;;;5047582;28;20473;-80
2021/08/25 09:07:53;;;;;;;7.90;7.20;;;18.60;57.30;;;;;;5057416;28;20431;-81
2021/08/25 09:10:28;;;;;;;8.50;7.67;;;18.80;56.40;;;;;;5057807;28;20474;-80
2021/08/25 09:12:57;;;;;;;7.53;6.60;;;18.80;56.20;;;;;;5044540;28;20475;-80
2021/08/25 09:15:26;;;;;;;8.30;7.47;;;18.70;55.70;;;;;;5043340;28;20427;-80
2021/08/25 09:18:01;;;;;;;7.60;6.90;;;18.50;57.20;;;;;;5042728;28;20461;-79
2021/08/25 09:20:29;;;;;;;8.13;6.83;;;18.60;57.20;;;;;;5046562;28;20458;-80
2021/08/25 09:23:13;;;;;;;7.73;6.83;;;18.80;56.20;;;;;;5054433;28;20495;-82
2021/08/25 09:25:43;;;;;;;7.77;6.57;;;18.90;54.50;;;;;;5040831;28;20460;-80
2021/08/25 09:28:13;;;;;;;7.77;7.07;;;18.90;54.40;;;;;;5048698;28;20518;-81
2021/08/25 09:30:57;;;;;;;6.80;6.20;;;19.00;54.40;;;;;;5052386;28;20527;-80
2021/08/25 09:33:26;;;;;;;7.00;6.30;;;19.00;53.30;;;;;;5053208;28;20497;-79
2021/08/25 09:35:57;;;;;;;6.60;5.90;;;19.10;52.90;;;;;;5047175;28;20456;-80
2021/08/25 09:38:25;;;;;;;6.60;6.00;;;19.40;52.10;;;;;;5042701;28;20460;-80
2021/08/25 09:40:56;;;;;;;6.63;5.37;;;19.60;51.50;;;;;;5044113;28;20492;-80
2021/08/25 09:43:38;;;;;;;7.97;6.17;;;19.70;49.60;;;;;;5043915;28;20490;-80
2021/08/25 09:46:07;;;;;;;7.50;5.57;;;19.70;50.30;;;;;;5042233;28;20481;-80
2021/08/25 09:48:36;;;;;;;6.90;6.20;;;19.70;49.70;;;;;;5042058;28;20454;-80
2021/08/25 09:51:04;;;;;;;6.07;5.57;;;19.80;49.70;;;;;;5042418;28;20877;-80
2021/08/25 09:53:31;;;;;;;6.20;5.40;;;19.50;48.40;;;;;;5040660;28;20996;-79
2021/08/25 09:55:59;;;;;;;6.80;6.20;;;19.50;49.20;;;;;;5042016;28;20521;-81
2021/08/25 09:58:26;;;;;;;8.17;5.80;;;19.70;48.60;;;;;;5055601;28;20468;-80
2021/08/25 10:00:55;;;;;;;5.43;4.93;;;19.70;49.20;;;;;;5057123;28;20460;-80
2021/08/25 10:03:22;;;;;;;6.27;5.23;;;20.20;48.10;;;;;;5057467;28;20458;-80
2021/08/25 10:05:49;;;;;;;5.90;5.23;;;19.80;48.70;;;;;;5053504;28;20548;-80
2021/08/25 10:08:18;;;;;;;5.97;5.40;;;20.10;47.60;;;;;;5044671;28;20504;-80
2021/08/25 10:10:45;;;;;;;6.67;5.63;;;19.90;48.20;;;;;;5045590;28;20453;-80
2021/08/25 10:13:14;;;;;;;7.50;6.30;;;20.20;49.00;;;;;;5043587;28;20478;-80
2021/08/25 10:15:46;;;;;;;5.13;4.73;;;20.40;49.20;;;;;;5043183;28;20474;-81
2021/08/25 10:18:25;;;;;;;6.60;5.47;;;20.80;50.30;;;;;;5045772;28;20515;-81
2021/08/25 10:20:54;;;;;;;6.57;5.30;;;20.90;46.90;;;;;;5052303;28;20441;-80
2021/08/25 10:23:22;;;;;;;6.30;5.70;;;20.20;49.00;;;;;;5056811;28;20450;-80
2021/08/25 10:26:09;;;;;;;8.80;6.50;;;20.50;49.30;;;;;;5056349;28;20478;-80
2021/08/25 10:29:07;;;;;;;9.30;6.30;;;20.40;48.80;;;;;;5050632;28;20534;-80
2021/08/25 10:32:07;;;;;;;7.23;5.97;;;20.50;45.80;;;;;;5046801;28;20501;-81
2021/08/25 10:34:38;;;;;;;7.00;5.20;;;20.50;45.20;;;;;;5046795;28;20481;-81
2021/08/25 10:37:28;;;;;;;5.33;4.90;;;20.70;44.20;;;;;;5051685;28;20465;-80
2021/08/25 10:40:03;;;;;;;5.40;4.90;;;20.70;44.40;;;;;;5050356;28;20528;-81
2021/08/25 10:42:46;;;;;;;9.63;5.60;;;20.70;43.00;;;;;;5049318;28;20446;-80
2021/08/25 10:45:16;;;;;;;7.30;5.50;;;21.00;41.40;;;;;;5053471;28;20475;-81
2021/08/25 10:47:58;;;;;;;5.90;5.30;;;20.90;42.10;;;;;;5057084;28;20435;-80
2021/08/25 10:50:25;;;;;;;6.97;5.00;;;20.90;41.30;;;;;;5059994;28;20457;-81
2021/08/25 10:52:52;;;;;;;7.77;4.80;;;21.00;40.30;;;;;;5059217;28;20486;-79
2021/08/25 10:55:20;;;;;;;6.87;5.20;;;21.30;40.00;;;;;;5058234;28;20451;-79
2021/08/25 10:57:46;;;;;;;5.70;4.60;;;21.40;40.10;;;;;;5058208;28;20447;-80
2021/08/25 11:00:16;;;;;;;6.23;4.70;;;21.30;37.30;;;;;;5053779;28;20450;-80
2021/08/25 11:02:43;;;;;;;5.20;4.70;;;21.30;38.40;;;;;;5054202;28;20472;-82
2021/08/25 11:05:10;;;;;;;6.00;4.40;;;21.50;38.60;;;;;;5055014;28;20482;-81
2021/08/25 11:07:43;;;;;;;6.00;4.90;;;21.60;37.80;;;;;;5051627;28;20455;-80
2021/08/25 11:10:10;;;;;;;6.20;4.10;;;21.50;36.60;;;;;;5059607;28;20513;-79
2021/08/25 11:12:45;;;;;;;6.30;4.93;;;21.70;36.50;;;;;;5060883;28;20474;-80
2021/08/25 11:15:12;;;;;;;4.63;3.67;;;21.80;36.70;;;;;;5061543;28;20465;-81
2021/08/25 11:17:42;;;;;;;4.13;3.73;;;21.80;35.30;;;;;;5060484;28;20443;-80
2021/08/25 11:20:10;;;;;;;7.03;4.83;;;21.80;34.40;;;;;;5048218;28;20514;-80
2021/08/25 11:22:38;;;;;;;5.40;4.20;;;21.50;31.80;;;;;;5049446;28;20506;-80
2021/08/25 11:25:08;;;;;;;7.37;4.23;;;21.40;33.00;;;;;;5048066;28;20493;-79
2021/08/25 11:27:37;;;;;;;4.43;3.97;;;21.60;31.80;;;;;;5047960;28;20459;-80
2021/08/25 11:30:13;;;;;;;5.70;4.13;;;21.80;30.10;;;;;;5046745;28;20456;-82
2021/08/25 11:32:46;;;;;;;7.87;4.07;;;21.80;30.10;;;;;;5048740;28;20514;-80
2021/08/25 11:35:15;;;;;;;4.33;3.93;;;22.00;30.30;;;;;;5048559;28;20481;-80
2021/08/25 11:37:43;;;;;;;7.83;4.40;;;21.90;30.40;;;;;;5048122;28;20432;-78
2021/08/25 11:40:12;;;;;;;4.93;3.20;;;21.80;31.60;;;;;;5048110;28;20451;-80
2021/08/25 11:42:39;;;;;;;4.03;3.63;;;22.00;30.30;;;;;;5049416;28;20647;-85
2021/08/25 11:45:16;;;;;;;5.43;4.40;;;22.10;30.50;;;;;;5055021;28;20510;-83
2021/08/25 11:47:52;;;;;;;4.40;4.00;;;21.70;30.00;;;;;;5060702;28;20559;-83
2021/08/25 11:50:20;;;;;;;4.07;3.60;;;22.00;30.30;;;;;;5053441;28;20452;-85
2021/08/25 11:52:48;;;;;;;4.17;3.77;;;21.80;30.10;;;;;;5036788;28;20504;-83
2021/08/25 11:55:16;;;;;;;4.80;4.07;;;22.00;30.30;;;;;;5046780;28;20447;-83
2021/08/25 11:57:46;;;;;;;5.17;4.40;;;22.40;30.70;;;;;;5048615;28;20466;-83
2021/08/25 12:00:15;;;;;;;7.83;4.10;;;22.20;30.50;;;;;;5045400;28;20438;-84
2021/08/25 12:02:57;;;;;;;4.70;4.20;;;21.90;31.50;;;;;;5049235;28;20485;-84
2021/08/25 12:05:26;;;;;;;5.67;4.37;;;22.00;30.30;;;;;;5048721;28;20484;-83
2021/08/25 12:08:06;;;;;;;5.70;4.00;;;22.00;30.30;;;;;;5049572;28;20475;-83
2021/08/25 12:10:34;;;;;;;5.57;4.97;;;21.80;29.90;;;;;;5054329;28;20443;-82
2021/08/25 12:13:02;;;;;;;4.77;4.03;;;22.00;29.20;;;;;;5058618;28;20526;-84
2021/08/25 12:15:51;;;;;;;4.90;4.20;;;22.10;29.20;;;;;;5060226;28;20453;-82
2021/08/25 12:18:21;;;;;;;5.00;4.20;;;22.40;29.50;;;;;;5049287;28;20457;-83
2021/08/25 12:20:51;;;;;;;6.20;3.90;;;22.10;29.70;;;;;;5058602;28;20456;-83
2021/08/25 12:23:19;;;;;;;4.60;4.20;;;22.00;30.30;;;;;;5059607;28;20465;-82
2021/08/25 12:25:48;;;;;;;4.37;3.93;;;22.20;29.50;;;;;;5053881;28;20865;-83
2021/08/25 12:28:16;;;;;;;5.67;4.13;;;22.00;30.30;;;;;;5047568;28;20454;-82
2021/08/25 12:30:44;;;;;;;6.53;4.40;;;21.70;30.00;;;;;;5046943;28;20433;-83
2021/08/25 12:33:12;;;;;;;5.93;4.37;;;22.00;30.30;;;;;;5027150;28;20478;-82
2021/08/25 12:35:41;;;;;;;5.57;4.43;;;22.40;29.50;;;;;;5027015;28;20466;-83
2021/08/25 12:38:08;;;;;;;7.93;4.77;;;22.10;28.90;;;;;;5046412;28;20465;-85
2021/08/25 12:40:35;;;;;;;6.50;3.97;;;22.30;28.70;;;;;;5051125;28;20525;-84
2021/08/25 12:43:03;;;;;;;6.60;4.00;;;22.30;27.80;;;;;;5047890;28;20519;-83